• Join FlightAware (Why Join?)
  • Login
  • US Flag 
11:38PM EDT


 

Airport Tracker/Info


-or-


 

Live Flight TrackerFlight Track Log ✈ USC110 ✈ 04-Dec-2013 ✈ KLCK - KCLT

Flight Track Log - Related Links

Times and Time Zones

All times are in EST time to prevent confusion due to time zone crossing. See the USC110 flight status page for this flight to view local times or setup timezone preferences in your user account.

Time Position Orientation Groundspeed Altitude Reporting Facility
EST Latitude Longitude Course Direction KTS MPH feet Rate Location/Type
05:31AM 39.8083 -82.9389 200° South 105 121 900  Level Indianapolis Center
05:31AM 39.7994 -82.9431 200° South 92 106 1,300 840 Climbing Indianapolis Center
05:32AM 39.7814 -82.9128 128° Southeast 111 128 2,100 780 Climbing Indianapolis Center
05:33AM 39.7756 -82.9056 136° Southeast 101 116 2,400 960 Climbing Indianapolis Center
05:33AM 39.7631 -82.8828 126° Southeast 106 122 3,100 660 Climbing Indianapolis Center
05:34AM 39.7581 -82.8717 120° Southeast 103 119 3,100 840 Level Indianapolis Center
05:35AM 39.7369 -82.8706 178° South 95 109 4,100 1,080 Climbing Indianapolis Center
05:35AM 39.7322 -82.8692 167° South 104 120 4,200 960 Climbing Indianapolis Center
05:36AM 39.7083 -82.8631 169° South 97 112 5,100 840 Climbing Indianapolis Center
05:36AM 39.7058 -82.8611 149° Southeast 100 115 5,100 840 Level Indianapolis Center
05:36AM 39.6839 -82.8539 166° South 101 116 5,900 840 Climbing Indianapolis Center
05:37AM 39.6797 -82.8503 146° Southeast 99 114 6,000 780 Climbing Indianapolis Center
05:37AM 39.6556 -82.8439 168° South 105 121 6,700 900 Climbing Indianapolis Center
05:38AM 39.6517 -82.8411 151° Southeast 102 117 6,900 720 Climbing Indianapolis Center
05:39AM 39.6214 -82.8322 167° South 108 124 7,700 780 Climbing Indianapolis Center
05:40AM 39.5908 -82.8208 164° South 112 129 8,500 660 Climbing Indianapolis Center
05:41AM 39.5583 -82.8114 167° South 118 136 9,100 240 Climbing Indianapolis Center
05:42AM 39.5167 -82.7989 167° South 151 174 9,100  Level Indianapolis Center
05:43AM 39.4750 -82.7844 165° South 155 178 9,100  Level Indianapolis Center
05:44AM 39.4222 -82.7675 166° South 160 184 9,100  Level Indianapolis Center
05:45AM 39.3764 -82.7514 165° South 167 192 9,100  Level Indianapolis Center
05:46AM 39.3339 -82.7300 159° South 166 191 9,100  Level Indianapolis Center
05:47AM 39.2903 -82.7092 160° South 167 192 9,100  Level Indianapolis Center
05:48AM 39.2481 -82.6900 161° South 163 188 9,100 -60 Level Indianapolis Center
05:49AM 39.2033 -82.6697 161° South 166 191 9,000 -60 Descending Indianapolis Center
05:50AM 39.1583 -82.6478 159° South 165 190 9,000  Level Indianapolis Center
05:51AM 39.1156 -82.6278 160° South 163 188 9,000  Level Indianapolis Center
05:52AM 39.0722 -82.6094 162° South 163 188 9,000  Level Indianapolis Center
05:53AM 39.0289 -82.5908 162° South 164 189 9,000  Level Indianapolis Center
05:54AM 38.9864 -82.5706 160° South 163 188 9,000  Level Indianapolis Center
05:55AM 38.9431 -82.5511 161° South 164 189 9,000  Level Indianapolis Center
05:56AM 38.9006 -82.5317 160° South 162 186 9,000  Level Indianapolis Center
05:57AM 38.8583 -82.5136 162° South 161 185 9,000  Level Indianapolis Center
05:58AM 38.8153 -82.4939 160° South 162 186 9,000  Level Indianapolis Center
05:59AM 38.7733 -82.4739 160° South 161 185 9,000  Level Indianapolis Center
06:00AM 38.7303 -82.4553 161° South 163 188 9,000  Level Indianapolis Center
06:01AM 38.6878 -82.4361 161° South 162 186 9,000  Level Indianapolis Center
06:02AM 38.6456 -82.4164 160° South 161 185 9,000  Level Indianapolis Center
06:03AM 38.6019 -82.3969 161° South 164 189 9,000  Level Indianapolis Center
06:04AM 38.5594 -82.3786 161° South 161 185 9,000  Level Indianapolis Center
06:05AM 38.5164 -82.3586 160° South 164 189 9,000  Level Indianapolis Center
06:06AM 38.4739 -82.3389 160° South 163 188 9,000  Level Indianapolis Center
06:07AM 38.4306 -82.3200 161° South 165 190 9,000  Level Indianapolis Center
06:08AM 38.3881 -82.3014 161° South 162 186 9,000  Level Indianapolis Center
06:09AM 38.3447 -82.2833 162° South 164 189 9,000  Level Indianapolis Center
06:10AM 38.3014 -82.2628 160° South 166 191 9,000  Level Indianapolis Center
06:11AM 38.2575 -82.2436 161° South 166 191 9,000  Level Indianapolis Center
06:12AM 38.2142 -82.2236 160° South 165 190 9,000  Level Indianapolis Center
06:13AM 38.1614 -82.2014 162° South 166 191 9,000  Level Indianapolis Center
06:14AM 38.1161 -82.1800 160° South 169 194 9,000  Level Indianapolis Center
06:15AM 38.0747 -82.1625 162° South 169 194 9,000  Level Indianapolis Center
06:16AM 38.0283 -82.1428 161° South 166 191 9,000  Level Indianapolis Center
06:17AM 37.9822 -82.1228 161° South 173 199 9,000  Level Indianapolis Center
06:18AM 37.9381 -82.1031 161° South 170 196 9,000  Level Indianapolis Center
06:19AM 37.8931 -82.0833 161° South 171 197 9,000  Level Indianapolis Center
06:20AM 37.8469 -82.0628 161° South 174 200 9,000  Level Indianapolis Center
06:21AM 37.8056 -82.0442 160° South 169 194 9,000  Level Indianapolis Center
06:22AM 37.7586 -82.0244 162° South 174 200 9,000  Level Indianapolis Center
06:23AM 37.7144 -82.0050 161° South 169 194 9,000  Level Indianapolis Center
06:24AM 37.6692 -81.9853 161° South 169 194 9,000  Level Indianapolis Center
06:25AM 37.6242 -81.9656 161° South 171 197 9,000  Level Indianapolis Center
06:26AM 37.5789 -81.9461 161° South 171 197 9,000  Level Indianapolis Center
06:27AM 37.5333 -81.9264 161° South 172 198 9,000  Level Indianapolis Center
06:28AM 37.4889 -81.9069 161° South 170 196 9,000  Level Indianapolis Center
06:29AM 37.4358 -81.8842 161° South 172 198 9,000  Level Indianapolis Center
06:30AM 37.3922 -81.8656 161° South 167 192 9,000  Level Indianapolis Center
06:31AM 37.3464 -81.8444 160° South 172 198 9,000  Level Indianapolis Center
06:32AM 37.3011 -81.8258 162° South 172 198 9,000  Level Indianapolis Center
06:33AM 37.2544 -81.8053 161° South 176 203 9,000  Level Indianapolis Center
06:34AM 37.2100 -81.7858 161° South 172 198 9,000  Level Indianapolis Center
06:35AM 37.1639 -81.7661 161° South 172 198 9,000  Level Indianapolis Center
06:36AM 37.1183 -81.7467 161° South 172 198 9,000  Level Indianapolis Center
06:37AM 37.0739 -81.7275 161° South 170 196 9,000  Level Indianapolis Center
06:38AM 37.0286 -81.7078 161° South 170 196 9,000  Level Indianapolis Center
06:39AM 36.9842 -81.6889 161° South 170 196 9,000  Level Indianapolis Center
06:40AM 36.9408 -81.6700 161° South 166 191 9,000  Level Indianapolis Center
06:41AM 36.8947 -81.6506 161° South 170 196 9,000  Level Indianapolis Center
06:42AM 36.8503 -81.6367 166° South 169 194 9,000  Level Atlanta Center
06:43AM 36.8058 -81.6147 158° South 169 194 9,000  Level Atlanta Center
06:44AM 36.7597 -81.5953 161° South 169 194 9,000  Level Atlanta Center
06:45AM 36.7133 -81.5761 162° South 169 194 9,000  Level Atlanta Center
06:46AM 36.6692 -81.5542 158° South 169 194 9,000  Level Atlanta Center
06:47AM 36.6231 -81.5350 162° South 174 200 9,000  Level Atlanta Center
06:48AM 36.5789 -81.5156 161° South 174 200 9,000 -60 Level Atlanta Center
06:49AM 36.5325 -81.4964 162° South 174 200 8,900  Descending Atlanta Center
06:50AM 36.4861 -81.4772 162° South 174 200 9,000  Climbing Atlanta Center
06:51AM 36.4442 -81.4581 160° South 174 200 9,000 -60 Level Atlanta Center
06:52AM 36.3978 -81.4389 162° South 174 200 8,900  Descending Atlanta Center
06:53AM 36.3536 -81.4222 163° South 174 200 9,000  Climbing Atlanta Center
06:54AM 36.3094 -81.4056 163° South 169 194 8,900 -60 Descending Atlanta Center
06:55AM 36.2631 -81.3839 159° South 169 194 8,900  Level Atlanta Center
06:56AM 36.2231 -81.3672 161° South 169 194 8,900  Level Atlanta Center
06:57AM 36.1789 -81.3481 161° South 169 194 8,900  Level Atlanta Center
06:58AM 36.1347 -81.3317 163° South 169 194 8,900  Level Atlanta Center
06:59AM 36.0906 -81.3125 161° South 169 194 8,900  Level Atlanta Center
07:00AM 36.0483 -81.2933 160° South 169 194 8,900  Level Atlanta Center
07:01AM 36.0042 -81.2744 161° South 169 194 9,000 60 Climbing Atlanta Center
07:02AM 35.9581 -81.2581 164° South 169 194 9,100  Climbing Atlanta Center
07:03AM 35.9158 -81.2414 162° South 168 193 9,000 -120 Descending Atlanta Center
07:03AM 35.9136 -81.2389 138° Southeast 169 194 9,000  Level Atlanta Center
07:04AM 35.8906 -81.2347 172° South 169 194 9,000  Level Atlanta Center
07:04AM 35.8694 -81.2200 151° Southeast 169 194 9,000 -180 Level Atlanta Center
07:05AM 35.8400 -81.2081 162° South 169 194 8,800 -600 Descending Atlanta Center
07:05AM 35.8250 -81.1933 141° Southeast 169 194 8,400 -1,020 Descending Atlanta Center
07:06AM 35.7953 -81.1739 152° Southeast 208 239 7,900 -720 Descending Atlanta Center
07:06AM 35.7783 -81.1567 140° Southeast 186 214 7,700 -480 Descending Atlanta Center
07:07AM 35.7528 -81.1394 151° Southeast 203 234 7,500 -540 Descending Atlanta Center
07:07AM 35.7317 -81.1200 143° Southeast 191 220 7,200 -540 Descending Atlanta Center
07:08AM 35.7081 -81.1028 149° Southeast 194 223 7,000 -420 Descending Atlanta Center
07:08AM 35.6911 -81.0881 145° Southeast 191 220 6,800 -480 Descending Atlanta Center
07:09AM 35.6656 -81.0711 152° Southeast 193 222 6,600 -420 Descending Atlanta Center
07:09AM 35.6444 -81.0514 143° Southeast 191 220 6,400 -540 Descending Atlanta Center
07:10AM 35.6106 -81.0297 153° Southeast 190 219 6,000 -420 Descending Atlanta Center
07:10AM 35.5997 -81.0172 137° Southeast 191 220 6,000 -420 Level Atlanta Center
07:11AM 35.5678 -80.9903 146° Southeast 192 221 5,600 -540 Descending Atlanta Center
07:11AM 35.5611 -80.9753 119° Southeast 191 220 5,500 -600 Descending Atlanta Center
07:12AM 35.5475 -80.9325 111° Southeast 203 234 5,100 -540 Descending Atlanta Center
07:12AM 35.5386 -80.9122 118° Southeast 186 214 5,000 -120 Descending Atlanta Center
07:13AM 35.5211 -80.8772 122° Southeast 184 212 5,000 60 Level Atlanta Center
07:14AM 35.4806 -80.8456 148° Southeast 171 197 5,100  Climbing Atlanta Center
07:15AM 35.4444 -80.8192 149° Southeast 172 198 5,100  Level Atlanta Center
07:16AM 35.3933 -80.7778 147° Southeast 174 200 5,100 -60 Level Atlanta Center
07:17AM 35.3508 -80.7464 149° Southeast 177 204 5,000 -360 Descending Atlanta Center
07:18AM 35.3042 -80.7203 155° Southeast 183 211 4,400 -480 Descending Atlanta Center
07:19AM 35.2575 -80.6942 155° Southeast 177 204 4,000 -240 Descending Atlanta Center
07:20AM 35.2117 -80.6933 179° South 161 185 4,000  Level Atlanta Center
07:21AM 35.1703 -80.7103 199° South 158 182 4,100  Climbing Atlanta Center
07:22AM 35.1292 -80.7272 199° South 158 182 4,100  Level Atlanta Center
07:23AM 35.0986 -80.7564 218° Southwest 160 184 4,100 -240 Level Atlanta Center
07:24AM 35.0706 -80.7981 231° Southwest 164 189 3,700 -660 Descending Atlanta Center
07:25AM 35.0614 -80.8517 258° West 170 196 2,900 -420 Descending Atlanta Center
07:26AM 35.0519 -80.8953 255° West 149 171 3,000 -60 Climbing Atlanta Center
07:27AM 35.1050 -80.9286 333° Northwest 176 203 2,800 -600 Descending Atlanta Center
07:28AM 35.1531 -80.9319 357° North 182 209 1,600 -1,020 Descending Atlanta Center
07:29AM 35.1928 -80.9356 356° North 153 176 900 -780 Descending Atlanta Center
07:31AM 35.2000 -80.9333 295° West  Level FlightAware Approximate
07:38AM 35.2137 -80.9491 295° West  Level Estimated